CheckWX is a tool to help pilots better visualize weather data.  It is not intended as a substitute for an official pre-flight weather briefing.

09:22:12 UTC

KERV METAR
Kerrville Municipal / Louis Schreiner Field Airport
Kerrville, Texas, USA
Current

27 mins ago

KERV 070855Z AUTO 00000KT 10SM CLR 04/01 A3031 RMK AO2 T00390012
Observed
Dec-7 @ 08:55 UTC
Visibility
10 SM
Flight Rules
VFR
Cloud Levels
  • Clear skies
Temperature
C / 39°F
Dewpoint
C / 34°F
Humidity
81%
Altimeter
30.31" Hg
Pressure
1026.42 hPa
Previous

47 mins ago

KERV 070835Z AUTO 00000KT 10SM CLR 04/01 A3031 RMK AO2 T00370011
Observed
Dec-7 @ 08:35 UTC
Visibility
10 SM
Flight Rules
VFR
Cloud Levels
  • Clear skies
Temperature
C / 39°F
Dewpoint
C / 34°F
Humidity
81%
Altimeter
30.31" Hg
Pressure
1026.42 hPa
Previous

1 hour ago

KERV 070815Z AUTO 00000KT 10SM CLR 04/01 A3031 RMK AO2 T00360011
Observed
Dec-7 @ 08:15 UTC
Visibility
10 SM
Flight Rules
VFR
Cloud Levels
  • Clear skies
Temperature
C / 39°F
Dewpoint
C / 34°F
Humidity
81%
Altimeter
30.31" Hg
Pressure
1026.42 hPa